This is the latest recevied weather packets stored in our database for station/object HA9OZD-18. If no packets are shown the sender has not sent any weather packets the latest 10 day(s).
| Time | Temp. | Humidity | Pressure | Rain* | Wind** | Luminosity | Snow |
|---|---|---|---|---|---|---|---|
| 1787431492 | 14.44° C | 60% | 1017.5 hPa | - | - | - | - |
| 1787427891 | 15° C | 57% | 1017.2 hPa | - | - | - | - |
| 1787424310 | 15.56° C | 52% | 1016.7 hPa | - | - | - | - |
| 1787420710 | 16.11° C | 47% | 1016.1 hPa | - | - | - | - |
| 1787417109 | 17.22° C | 45% | 1015.9 hPa | - | - | - | - |
| 1787413509 | 17.78° C | 44% | 1015.7 hPa | - | - | - | - |
| 1787409909 | 19.44° C | 39% | 1015.3 hPa | - | - | - | - |
| 1787406309 | 21.11° C | 37% | 1014.8 hPa | - | - | - | - |
| 1787402708 | 25.56° C | 32% | 1014.3 hPa | - | - | - | - |
| 1787399107 | 20° C | 47% | 1014 hPa | - | - | - | - |
| 1787395507 | 18.89° C | 53% | 1013.8 hPa | - | - | - | - |
| 1787391907 | 18.33° C | 67% | 1013.5 hPa | - | - | - | - |
| 1787388306 | 17.22° C | 84% | 1013.2 hPa | - | - | - | - |
| 1787384706 | 15.56° C | 100% | 1012.5 hPa | - | - | - | - |
| 1787381106 | 13.33° C | 100% | 1011.7 hPa | - | - | - | - |
| 1787377505 | 12.22° C | 100% | 1011.1 hPa | - | - | - | - |
| 1787373905 | 11.67° C | 100% | 1010.3 hPa | - | - | - | - |
| 1787370305 | 12.22° C | 100% | 1009.5 hPa | - | - | - | - |
| 1787366705 | 14.44° C | 100% | 1009 hPa | - | - | - | - |
| 1787363104 | 14.44° C | 100% | 1009.2 hPa | - | - | - | - |
| 1787359504 | 16.11° C | 100% | 1009.8 hPa | - | - | - | - |
* Rain since midnight (hover to see other rain measurements)
** Current wind speed in m/s (hover to see current wind gust speed)